Time,TemperatureF,DewpointF,PressureIn,WindDirection,WindDirectionDegrees,WindSpeedMPH,WindSpeedGustMPH,Humidity,HourlyPrecipIn,Conditions,Clouds,dailyrainin,SoftwareType,DateUTC
2013-11-21 00:11:00,41.0,36.8,30.09,SE,140,6.0,6.0,85,0.00,OVC,OVC,0.00,WeatherDisplay:10.37,2013-11-21 06:11:00,
2013-11-21 00:41:00,42.1,37.9,30.09,SSE,150,3.0,3.0,85,0.00,OVC,OVC,0.00,WeatherDisplay:10.37,2013-11-21 06:41:00,
2013-11-21 01:11:00,42.1,37.9,30.09,SSE,150,3.0,3.0,85,0.00,OVC,OVC,0.00,WeatherDisplay:10.37,2013-11-21 07:11:00,
2013-11-21 01:41:00,43.0,37.9,30.09,South,180,6.0,6.0,82,0.00,OVC,OVC,0.00,WeatherDisplay:10.37,2013-11-21 07:41:00,
2013-11-21 02:11:00,43.0,37.9,30.09,South,180,6.0,6.0,82,0.00,OVC,OVC,0.00,WeatherDisplay:10.37,2013-11-21 08:11:00,
2013-11-21 02:41:00,44.1,37.6,30.09,South,170,6.0,6.0,78,0.00,OVC,OVC,0.00,WeatherDisplay:10.37,2013-11-21 08:41:00,
2013-11-21 03:11:00,44.1,37.6,30.09,South,170,6.0,6.0,78,0.00,OVC,OVC,0.00,WeatherDisplay:10.37,2013-11-21 09:11:00,
2013-11-21 03:41:00,44.1,37.6,30.08,South,170,7.0,7.0,78,0.00,OVC,OVC,0.00,WeatherDisplay:10.37,2013-11-21 09:41:00,
2013-11-21 04:11:00,44.1,37.6,30.08,South,170,7.0,7.0,78,0.00,OVC,OVC,0.00,WeatherDisplay:10.37,2013-11-21 10:11:00,
2013-11-21 04:41:00,45.0,38.8,30.08,South,170,7.0,7.0,79,0.00,OVC,OVC,0.00,WeatherDisplay:10.37,2013-11-21 10:41:00,
2013-11-21 05:11:00,45.0,38.8,30.09,South,170,6.0,7.0,79,0.00,OVC,OVC,0.00,WeatherDisplay:10.37,2013-11-21 11:11:00,
2013-11-21 05:41:00,45.0,38.8,30.09,South,170,6.0,6.0,79,0.00,OVC,OVC,0.00,WeatherDisplay:10.37,2013-11-21 11:41:00,
2013-11-21 06:11:00,45.0,38.8,30.09,South,170,6.0,6.0,79,0.00,OVC,OVC,0.00,WeatherDisplay:10.37,2013-11-21 12:11:00,
2013-11-21 06:41:00,45.0,38.8,30.09,SSE,150,3.0,3.0,79,0.00,OVC,OVC,0.00,WeatherDisplay:10.37,2013-11-21 12:41:00,
2013-11-21 07:11:00,45.0,39.8,30.11,SSE,150,3.0,3.0,82,0.00,OVC,OVC,0.00,WeatherDisplay:10.37,2013-11-21 13:11:00,
2013-11-21 07:41:00,45.0,39.8,30.11,SSE,150,3.0,3.0,82,0.00,OVC,OVC,0.00,WeatherDisplay:10.37,2013-11-21 13:41:00,
2013-11-21 08:11:00,46.0,39.9,30.13,SE,140,5.0,5.0,79,0.00,OVC,OVC,0.00,WeatherDisplay:10.37,2013-11-21 14:11:00,
2013-11-21 08:41:00,46.0,39.9,30.13,SE,140,5.0,5.0,79,0.00,OVC,OVC,0.00,WeatherDisplay:10.37,2013-11-21 14:41:00,
2013-11-21 09:11:00,46.9,40.8,30.14,SSE,150,6.0,6.0,79,0.00,OVC,OVC,0.00,WeatherDisplay:10.37,2013-11-21 15:11:00,
2013-11-21 09:41:00,46.9,40.8,30.14,SSE,150,6.0,6.0,79,0.00,OVC,OVC,0.00,WeatherDisplay:10.37,2013-11-21 15:41:00,
2013-11-21 10:11:00,46.9,40.8,30.14,SSE,150,6.0,6.0,79,0.00,OVC,OVC,0.00,WeatherDisplay:10.37,2013-11-21 16:11:00,
2013-11-21 10:41:00,48.0,41.8,30.15,SSE,150,3.0,3.0,79,0.00,OVC,OVC,0.00,WeatherDisplay:10.37,2013-11-21 16:41:00,
2013-11-21 11:11:00,48.0,41.8,30.15,SSE,150,3.0,3.0,79,0.00,OVC,OVC,0.00,WeatherDisplay:10.37,2013-11-21 17:11:00,
2013-11-21 11:41:00,48.0,42.8,30.14,SSE,160,5.0,5.0,82,0.00,-RA,-RA,0.00,WeatherDisplay:10.37,2013-11-21 17:41:00,
2013-11-21 11:56:00,48.0,42.8,30.14,SSE,160,5.0,5.0,82,0.00,-RA,-RA,0.00,WeatherDisplay:10.37,2013-11-21 17:56:00,
2013-11-21 12:11:00,48.0,42.8,30.14,SSE,160,5.0,5.0,82,0.00,-RA,-RA,0.00,WeatherDisplay:10.37,2013-11-21 18:11:00,
2013-11-21 12:41:00,48.0,44.9,30.14,South,170,3.0,3.0,89,0.00,-RA,-RA,0.02,WeatherDisplay:10.37,2013-11-21 18:41:00,
2013-11-21 13:11:00,48.9,45.8,30.14,South,170,0.0,3.0,89,0.02,-RA,-RA,0.04,WeatherDisplay:10.37,2013-11-21 19:11:00,
2013-11-21 13:41:00,48.9,45.8,30.14,South,170,0.0,0.0,89,0.00,-RA,-RA,0.04,WeatherDisplay:10.37,2013-11-21 19:41:00,
2013-11-21 14:11:00,48.9,45.8,30.12,South,170,0.0,0.0,89,0.03,-RA,-RA,0.07,WeatherDisplay:10.37,2013-11-21 20:11:00,
2013-11-21 14:41:00,48.9,45.8,30.12,South,170,0.0,0.0,89,0.00,-RA,-RA,0.07,WeatherDisplay:10.37,2013-11-21 20:41:00,
2013-11-21 15:11:00,48.9,44.9,30.12,South,170,0.0,0.0,86,0.03,-RA,-RA,0.10,WeatherDisplay:10.37,2013-11-21 21:11:00,
2013-11-21 15:41:00,48.9,44.9,30.12,South,170,0.0,0.0,86,0.00,-RA,-RA,0.10,WeatherDisplay:10.37,2013-11-21 21:41:00,
2013-11-21 16:11:00,48.2,46.3,30.12,South,170,0.0,0.0,93,0.02,-RA,-RA,0.12,WeatherDisplay:10.37,2013-11-21 22:11:00,
2013-11-21 16:41:00,48.0,46.9,30.12,South,170,0.0,0.0,96,0.00,-RA,-RA,0.12,WeatherDisplay:10.37,2013-11-21 22:41:00,
2013-11-21 17:11:00,48.0,45.8,30.14,South,170,0.0,0.0,92,0.00,OVC,OVC,0.12,WeatherDisplay:10.37,2013-11-21 23:11:00,
2013-11-21 17:41:00,48.0,45.8,30.15,South,170,0.0,0.0,92,0.00,OVC,OVC,0.12,WeatherDisplay:10.37,2013-11-21 23:41:00,
2013-11-21 18:11:00,46.9,44.7,30.17,North,350,3.0,3.0,92,0.00,OVC,OVC,0.12,WeatherDisplay:10.37,2013-11-22 00:11:00,
2013-11-21 18:41:00,46.9,44.7,30.17,North,350,0.0,0.0,92,0.00,OVC,OVC,0.12,WeatherDisplay:10.37,2013-11-22 00:41:00,
2013-11-21 19:11:00,46.9,43.9,30.19,NNW,330,3.0,3.0,89,0.00,OVC,OVC,0.12,WeatherDisplay:10.37,2013-11-22 01:11:00,
2013-11-21 19:41:00,46.9,44.7,30.18,NNW,340,6.0,6.0,92,0.00,OVC,OVC,0.12,WeatherDisplay:10.37,2013-11-22 01:41:00,
2013-11-21 20:11:00,46.9,43.9,30.19,North,350,5.0,5.0,89,0.00,OVC,OVC,0.12,WeatherDisplay:10.37,2013-11-22 02:11:00,
2013-11-21 20:41:00,45.0,42.8,30.20,North,360,8.0,8.0,92,0.00,OVC,OVC,0.12,WeatherDisplay:10.37,2013-11-22 02:41:00,
2013-11-21 21:11:00,45.0,42.8,30.20,North,360,8.0,8.0,92,0.00,OVC,OVC,0.12,WeatherDisplay:10.37,2013-11-22 03:11:00,
2013-11-21 21:41:00,45.0,41.9,30.21,NNE,20,3.0,3.0,89,0.00,OVC,OVC,0.12,WeatherDisplay:10.37,2013-11-22 03:41:00,
2013-11-21 22:11:00,44.1,40.7,30.21,NNW,330,7.0,7.0,88,0.00,OVC,OVC,0.12,WeatherDisplay:10.37,2013-11-22 04:11:00,
2013-11-21 22:41:00,44.1,40.7,30.22,NNW,330,5.0,5.0,88,0.00,OVC,OVC,0.12,WeatherDisplay:10.37,2013-11-22 04:41:00,
2013-11-21 23:11:00,43.0,40.8,30.21,NNW,340,6.0,6.0,92,0.00,OVC,OVC,0.12,WeatherDisplay:10.37,2013-11-22 05:11:00,
2013-11-21 23:41:00,43.0,39.7,30.22,NNW,340,7.0,7.0,88,0.00,OVC,OVC,0.12,WeatherDisplay:10.37,2013-11-22 05:41:00,